PWSweather.com
Personal Weather Stations
Station Observations
KKYBOWLI8
Greystone Ii, Bowling Green, KY 42101

Greystone IiBowling Green, KY 42101

Lat: 36.9238, Lon: -86.5206

Elevation: 600

Station Type: Davis Vantage Pro2

Latest ConditionsUpdated 11:00:00 PM CDT Tuesday, Aug 20, 2019
Currently Today's Max Today's Min Today's Average
Temperature 71.1°F21.7°C 97.0°F36.1°C 70.9°F21.6°C 80.2°F26.8°C
Dew Point 71.1°F21.7°C 84.2°F29.0°C 70.9°F21.6°C 76.4°F24.7°C
Winds Calm Calm 12.0 mph -19.3 kmh - - 0.8 mph 1.3 kmh
Wind Gusts 1.0 mph1.6 kmh 26.0 mph41.8 kmh - -
Humidity 100% 100% 58% 90%
Pressure 30.00 in1015.9 mb 30.06 in1017.9 mb 29.96 in1014.6 mb -
Precipitation - 0.58 in14.7 mm - -
Hour Temp Dew Point Humidity Winds Wind Gusts Pressure Precip Precip Rate Daily Precip Total
11:00 PM 71.1°F21.7°C 71.1°F21.7°C 100% Calm Calm 1.0 mph1.6 kmh 30.00 in1015.9 mb 0.00 in0.0 mm 0.00 in0.0 mm 0.58 in14.7 mm
10:50 PM 71.2°F21.8°C 71.2°F21.8°C 100% Calm Calm 1.0 mph1.6 kmh 30.00 in1015.9 mb 0.00 in0.0 mm 0.00 in0.0 mm 0.58 in14.7 mm
10:40 PM 71.3°F21.8°C 71.3°F21.8°C 100% Calm Calm -- 30.00 in1015.9 mb 0.00 in0.0 mm 0.00 in0.0 mm 0.58 in14.7 mm
10:30 PM 71.3°F21.8°C 71.3°F21.8°C 100% Calm Calm 1.0 mph1.6 kmh 30.00 in1015.9 mb 0.00 in0.0 mm 0.00 in0.0 mm 0.58 in14.7 mm
10:20 PM 71.2°F21.8°C 71.2°F21.8°C 100% Calm Calm 1.0 mph1.6 kmh 30.01 in1016.3 mb 0.00 in0.0 mm 0.00 in0.0 mm 0.58 in14.7 mm
10:10 PM 71.3°F21.8°C 71.3°F21.8°C 100% 0.2 mph NNW0.3 kmh NNW 1.0 mph1.6 kmh 30.00 in1015.9 mb 0.00 in0.0 mm 0.00 in0.0 mm 0.58 in14.7 mm
10:00 PM 71.3°F21.8°C 71.3°F21.8°C 100% 0.6 mph NW1.0 kmh NW 2.0 mph3.2 kmh 30.00 in1015.9 mb 0.00 in0.0 mm 0.00 in0.0 mm 0.58 in14.7 mm
09:50 PM 71.2°F21.8°C 71.2°F21.8°C 100% Calm Calm 1.0 mph1.6 kmh 30.00 in1015.9 mb 0.00 in0.0 mm 0.00 in0.0 mm 0.58 in14.7 mm
09:40 PM 71.0°F21.7°C 71.0°F21.7°C 100% Calm Calm 1.0 mph1.6 kmh 29.98 in1015.2 mb 0.00 in0.0 mm 0.00 in0.0 mm 0.58 in14.7 mm
09:30 PM 71.0°F21.7°C 71.0°F21.7°C 100% Calm Calm 2.0 mph3.2 kmh 29.98 in1015.2 mb 0.00 in0.0 mm 0.00 in0.0 mm 0.58 in14.7 mm
09:20 PM 70.9°F21.6°C 70.9°F21.6°C 100% Calm Calm 1.0 mph1.6 kmh 29.98 in1015.2 mb 0.00 in0.0 mm 0.00 in0.0 mm 0.58 in14.7 mm
09:10 PM 71.0°F21.7°C 71.0°F21.7°C 100% Calm Calm 3.0 mph4.8 kmh 29.98 in1015.2 mb 0.00 in0.0 mm 0.00 in0.0 mm 0.58 in14.7 mm
09:00 PM 70.9°F21.6°C 70.9°F21.6°C 100% Calm Calm 1.0 mph1.6 kmh 29.98 in1015.2 mb 0.00 in0.0 mm 0.00 in0.0 mm 0.58 in14.7 mm
08:50 PM 70.9°F21.6°C 70.9°F21.6°C 100% Calm Calm 1.0 mph1.6 kmh 29.98 in1015.2 mb 0.00 in0.0 mm 0.00 in0.0 mm 0.58 in14.7 mm
08:40 PM 71.1°F21.7°C 71.1°F21.7°C 100% Calm Calm 1.0 mph1.6 kmh 29.97 in1014.9 mb 0.00 in0.0 mm 0.00 in0.0 mm 0.58 in14.7 mm
08:30 PM 71.1°F21.7°C 71.1°F21.7°C 100% Calm Calm 2.0 mph3.2 kmh 29.97 in1014.9 mb 0.00 in0.0 mm 0.00 in0.0 mm 0.58 in14.7 mm
08:20 PM 71.2°F21.8°C 71.2°F21.8°C 100% Calm Calm 1.0 mph1.6 kmh 29.98 in1015.2 mb 0.00 in0.0 mm 0.00 in0.0 mm 0.58 in14.7 mm
08:10 PM 71.3°F21.8°C 71.3°F21.8°C 100% Calm Calm 1.0 mph1.6 kmh 29.99 in1015.6 mb 0.00 in0.0 mm 0.00 in0.0 mm 0.58 in14.7 mm
08:00 PM 71.5°F21.9°C 71.5°F21.9°C 100% Calm Calm 1.0 mph1.6 kmh 30.00 in1015.9 mb 0.00 in0.0 mm 0.00 in0.0 mm 0.58 in14.7 mm
07:50 PM 71.6°F22.0°C 71.6°F22.0°C 100% Calm Calm 1.0 mph1.6 kmh 30.01 in1016.3 mb 0.00 in0.0 mm 0.00 in0.0 mm 0.58 in14.7 mm
07:40 PM 71.8°F22.1°C 71.8°F22.1°C 100% 0.4 mph WSW0.6 kmh WSW 1.0 mph1.6 kmh 30.02 in1016.6 mb 0.00 in0.0 mm 0.00 in0.0 mm 0.58 in14.7 mm
07:30 PM 71.8°F22.1°C 71.8°F22.1°C 100% 1.0 mph WSW1.6 kmh WSW 3.0 mph4.8 kmh 30.03 in1016.9 mb 0.00 in0.0 mm 0.00 in0.0 mm 0.58 in14.7 mm
07:20 PM 71.8°F22.1°C 71.8°F22.1°C 100% 1.0 mph SW1.6 kmh SW 4.0 mph6.4 kmh 30.04 in1017.3 mb 0.00 in0.0 mm 0.00 in0.0 mm 0.58 in14.7 mm
07:10 PM 71.8°F22.1°C 71.8°F22.1°C 100% 0.2 mph SW0.3 kmh SW 3.0 mph4.8 kmh 30.04 in1017.3 mb 0.00 in0.0 mm 0.00 in0.0 mm 0.58 in14.7 mm
07:00 PM 71.8°F22.1°C 71.8°F22.1°C 100% Calm Calm 2.0 mph3.2 kmh 30.04 in1017.3 mb 0.00 in0.0 mm 0.00 in0.0 mm 0.58 in14.7 mm
06:50 PM 71.6°F22.0°C 71.6°F22.0°C 100% 0.3 mph NE0.5 kmh NE 1.0 mph1.6 kmh 30.04 in1017.3 mb 0.01 in0.3 mm 0.00 in0.0 mm 0.58 in14.7 mm
06:40 PM 71.6°F22.0°C 71.6°F22.0°C 100% 1.0 mph NE1.6 kmh NE 4.0 mph6.4 kmh 30.04 in1017.3 mb 0.01 in0.3 mm 0.00 in0.0 mm 0.58 in14.7 mm
06:30 PM 71.6°F22.0°C 71.6°F22.0°C 100% 1.3 mph NE2.1 kmh NE 3.0 mph4.8 kmh 30.04 in1017.3 mb 0.01 in0.3 mm 0.00 in0.0 mm 0.58 in14.7 mm
06:20 PM 71.6°F22.0°C 71.6°F22.0°C 100% 1.7 mph NNE2.7 kmh NNE 5.0 mph8.0 kmh 30.04 in1017.3 mb 0.02 in0.5 mm 0.00 in0.0 mm 0.58 in14.7 mm
06:10 PM 71.5°F21.9°C 71.5°F21.9°C 100% 0.2 mph NE0.3 kmh NE 4.0 mph6.4 kmh 30.03 in1016.9 mb 0.09 in2.3 mm 0.00 in0.0 mm 0.58 in14.7 mm
06:00 PM 71.3°F21.8°C 71.3°F21.8°C 100% 0.7 mph NE1.1 kmh NE 2.0 mph3.2 kmh 30.03 in1016.9 mb 0.30 in7.6 mm 0.00 in0.0 mm 0.58 in14.7 mm
05:50 PM 71.3°F21.8°C 71.3°F21.8°C 100% 1.4 mph NE2.3 kmh NE 3.0 mph4.8 kmh 30.03 in1016.9 mb 0.57 in14.5 mm 0.00 in0.0 mm 0.57 in14.5 mm
05:40 PM 71.2°F21.8°C 71.2°F21.8°C 100% 2.9 mph NNE4.7 kmh NNE 9.0 mph14.5 kmh 30.02 in1016.6 mb 0.57 in14.5 mm 0.00 in0.0 mm 0.57 in14.5 mm
05:30 PM 71.3°F21.8°C 71.3°F21.8°C 100% 5.2 mph NE8.4 kmh NE 10.0 mph16.1 kmh 30.02 in1016.6 mb 0.57 in14.5 mm 0.06 in1.5 mm 0.57 in14.5 mm
05:20 PM 71.5°F21.9°C 71.5°F21.9°C 100% 8.1 mph N13.0 kmh N 16.0 mph25.7 kmh 30.03 in1016.9 mb 0.56 in14.2 mm 0.42 in10.7 mm 0.56 in14.2 mm
05:10 PM 71.5°F21.9°C 71.5°F21.9°C 100% 9.6 mph N15.4 kmh N 20.0 mph32.2 kmh 30.02 in1016.6 mb 0.49 in12.4 mm 1.26 in32.0 mm 0.49 in12.4 mm
05:00 PM 73.7°F23.2°C 73.7°F23.2°C 100% 12.0 mph N19.3 kmh N 25.0 mph40.2 kmh 30.02 in1016.6 mb 0.28 in7.1 mm 0.34 in8.6 mm 0.28 in7.1 mm
04:50 PM 81.7°F27.6°C 76.0°F24.4°C 83% 5.0 mph N8.0 kmh N 26.0 mph41.8 kmh 30.03 in1016.9 mb 0.00 in0.0 mm 0.00 in0.0 mm 0.00 in0.0 mm
04:40 PM 92.8°F33.8°C 82.0°F27.8°C 71% 1.0 mph WNW1.6 kmh WNW 6.0 mph9.7 kmh 29.97 in1014.9 mb 0.00 in0.0 mm 0.00 in0.0 mm 0.00 in0.0 mm
04:30 PM 93.8°F34.3°C 82.1°F27.8°C 69% 1.0 mph WNW1.6 kmh WNW 3.0 mph4.8 kmh 29.97 in1014.9 mb 0.00 in0.0 mm 0.00 in0.0 mm 0.00 in0.0 mm
04:20 PM 94.9°F34.9°C 82.2°F27.9°C 67% 0.6 mph WSW1.0 kmh WSW 3.0 mph4.8 kmh 29.96 in1014.6 mb 0.00 in0.0 mm 0.00 in0.0 mm 0.00 in0.0 mm
04:10 PM 95.6°F35.3°C 81.9°F27.7°C 65% 0.9 mph WNW1.4 kmh WNW 3.0 mph4.8 kmh 29.96 in1014.6 mb 0.00 in0.0 mm 0.00 in0.0 mm 0.00 in0.0 mm
04:00 PM 95.4°F35.2°C 81.8°F27.7°C 65% 1.0 mph NW1.6 kmh NW 3.0 mph4.8 kmh 29.96 in1014.6 mb 0.00 in0.0 mm 0.00 in0.0 mm 0.00 in0.0 mm
03:50 PM 95.3°F35.2°C 81.7°F27.6°C 65% 0.5 mph W0.8 kmh W 2.0 mph3.2 kmh 29.97 in1014.9 mb 0.00 in0.0 mm 0.00 in0.0 mm 0.00 in0.0 mm
03:40 PM 94.0°F34.4°C 80.9°F27.2°C 66% 1.0 mph W1.6 kmh W 3.0 mph4.8 kmh 29.97 in1014.9 mb 0.00 in0.0 mm 0.00 in0.0 mm 0.00 in0.0 mm
03:30 PM 93.5°F34.2°C 80.0°F26.7°C 65% 1.1 mph WSW1.8 kmh WSW 2.0 mph3.2 kmh 29.97 in1014.9 mb 0.00 in0.0 mm 0.00 in0.0 mm 0.00 in0.0 mm
03:20 PM 93.3°F34.1°C 80.2°F26.8°C 66% 1.0 mph WSW1.6 kmh WSW 5.0 mph8.0 kmh 29.96 in1014.6 mb 0.00 in0.0 mm 0.00 in0.0 mm 0.00 in0.0 mm
03:10 PM 93.7°F34.3°C 80.6°F27.0°C 66% 1.7 mph WSW2.7 kmh WSW 3.0 mph4.8 kmh 29.96 in1014.6 mb 0.00 in0.0 mm 0.00 in0.0 mm 0.00 in0.0 mm
03:00 PM 93.8°F34.3°C 81.6°F27.6°C 68% 2.0 mph WSW3.2 kmh WSW 4.0 mph6.4 kmh 29.97 in1014.9 mb 0.00 in0.0 mm 0.00 in0.0 mm 0.00 in0.0 mm
02:50 PM 94.9°F34.9°C 82.2°F27.9°C 67% 2.0 mph WSW3.2 kmh WSW 5.0 mph8.0 kmh 29.97 in1014.9 mb 0.00 in0.0 mm 0.00 in0.0 mm 0.00 in0.0 mm
02:40 PM 95.9°F35.5°C 81.8°F27.7°C 64% 2.0 mph SW3.2 kmh SW 6.0 mph9.7 kmh 29.98 in1015.2 mb 0.00 in0.0 mm 0.00 in0.0 mm 0.00 in0.0 mm
02:30 PM 96.4°F35.8°C 81.7°F27.6°C 63% 2.0 mph WSW3.2 kmh WSW 7.0 mph11.3 kmh 29.98 in1015.2 mb 0.00 in0.0 mm 0.00 in0.0 mm 0.00 in0.0 mm
02:20 PM 96.3°F35.7°C 82.1°F27.8°C 64% 2.3 mph SW3.7 kmh SW 8.0 mph12.9 kmh 29.99 in1015.6 mb 0.00 in0.0 mm 0.00 in0.0 mm 0.00 in0.0 mm
02:10 PM 96.1°F35.6°C 82.4°F28.0°C 65% 2.1 mph WSW3.4 kmh WSW 9.0 mph14.5 kmh 29.99 in1015.6 mb 0.00 in0.0 mm 0.00 in0.0 mm 0.00 in0.0 mm
02:00 PM 97.0°F36.1°C 83.7°F28.7°C 66% 1.7 mph SW2.7 kmh SW 7.0 mph11.3 kmh 30.00 in1015.9 mb 0.00 in0.0 mm 0.00 in0.0 mm 0.00 in0.0 mm
01:50 PM 97.0°F36.1°C 81.3°F27.4°C 61% 1.1 mph WSW1.8 kmh WSW 8.0 mph12.9 kmh 30.00 in1015.9 mb 0.00 in0.0 mm 0.00 in0.0 mm 0.00 in0.0 mm
01:40 PM 97.0°F36.1°C 81.8°F27.7°C 62% 1.7 mph WSW2.7 kmh WSW 5.0 mph8.0 kmh 30.00 in1015.9 mb 0.00 in0.0 mm 0.00 in0.0 mm 0.00 in0.0 mm
01:30 PM 96.5°F35.8°C 82.8°F28.2°C 65% 1.6 mph SW2.6 kmh SW 6.0 mph9.7 kmh 30.01 in1016.3 mb 0.00 in0.0 mm 0.00 in0.0 mm 0.00 in0.0 mm
01:20 PM 97.0°F36.1°C 79.8°F26.6°C 58% 1.4 mph SW2.3 kmh SW 4.0 mph6.4 kmh 30.01 in1016.3 mb 0.00 in0.0 mm 0.00 in0.0 mm 0.00 in0.0 mm
01:10 PM 95.8°F35.4°C 81.7°F27.6°C 64% 1.3 mph WSW2.1 kmh WSW 6.0 mph9.7 kmh 30.01 in1016.3 mb 0.00 in0.0 mm 0.00 in0.0 mm 0.00 in0.0 mm
01:00 PM 95.6°F35.3°C 82.9°F28.3°C 67% 1.7 mph WSW2.7 kmh WSW 4.0 mph6.4 kmh 30.02 in1016.6 mb 0.00 in0.0 mm 0.00 in0.0 mm 0.00 in0.0 mm
12:50 PM 94.9°F34.9°C 82.2°F27.9°C 67% 1.3 mph WSW2.1 kmh WSW 6.0 mph9.7 kmh 30.02 in1016.6 mb 0.00 in0.0 mm 0.00 in0.0 mm 0.00 in0.0 mm
12:40 PM 93.6°F34.2°C 80.5°F26.9°C 66% 1.0 mph WSW1.6 kmh WSW 4.0 mph6.4 kmh 30.03 in1016.9 mb 0.00 in0.0 mm 0.00 in0.0 mm 0.00 in0.0 mm
12:30 PM 92.9°F33.8°C 82.1°F27.8°C 71% 1.0 mph WSW1.6 kmh WSW 4.0 mph6.4 kmh 30.03 in1016.9 mb 0.00 in0.0 mm 0.00 in0.0 mm 0.00 in0.0 mm
12:20 PM 93.8°F34.3°C 82.5°F28.1°C 70% Calm Calm 4.0 mph6.4 kmh 30.04 in1017.3 mb 0.00 in0.0 mm 0.00 in0.0 mm 0.00 in0.0 mm
12:10 PM 93.5°F34.2°C 83.5°F28.6°C 73% 0.7 mph SW1.1 kmh SW 2.0 mph3.2 kmh 30.03 in1016.9 mb 0.00 in0.0 mm 0.00 in0.0 mm 0.00 in0.0 mm
12:00 PM 93.4°F34.1°C 83.0°F28.3°C 72% 1.0 mph WSW1.6 kmh WSW 5.0 mph8.0 kmh 30.03 in1016.9 mb 0.00 in0.0 mm 0.00 in0.0 mm 0.00 in0.0 mm
11:50 AM 94.5°F34.7°C 82.7°F28.2°C 69% 1.1 mph WSW1.8 kmh WSW 4.0 mph6.4 kmh 30.04 in1017.3 mb 0.00 in0.0 mm 0.00 in0.0 mm 0.00 in0.0 mm
11:40 AM 94.9°F34.9°C 83.1°F28.4°C 69% 1.0 mph WSW1.6 kmh WSW 3.0 mph4.8 kmh 30.04 in1017.3 mb 0.00 in0.0 mm 0.00 in0.0 mm 0.00 in0.0 mm
11:30 AM 93.8°F34.3°C 84.2°F29.0°C 74% 0.6 mph WSW1.0 kmh WSW 3.0 mph4.8 kmh 30.05 in1017.6 mb 0.00 in0.0 mm 0.00 in0.0 mm 0.00 in0.0 mm
11:20 AM 92.3°F33.5°C 83.6°F28.7°C 76% 0.8 mph W1.3 kmh W 6.0 mph9.7 kmh 30.06 in1017.9 mb 0.00 in0.0 mm 0.00 in0.0 mm 0.00 in0.0 mm
11:10 AM 92.2°F33.4°C 83.1°F28.4°C 75% 1.0 mph WSW1.6 kmh WSW 4.0 mph6.4 kmh 30.06 in1017.9 mb 0.00 in0.0 mm 0.00 in0.0 mm 0.00 in0.0 mm
11:00 AM 91.0°F32.8°C 82.8°F28.2°C 77% 1.0 mph WSW1.6 kmh WSW 4.0 mph6.4 kmh 30.05 in1017.6 mb 0.00 in0.0 mm 0.00 in0.0 mm 0.00 in0.0 mm
10:50 AM 90.9°F32.7°C 83.1°F28.4°C 78% 0.8 mph SW1.3 kmh SW 4.0 mph6.4 kmh 30.05 in1017.6 mb 0.00 in0.0 mm 0.00 in0.0 mm 0.00 in0.0 mm
10:40 AM 89.9°F32.2°C 83.7°F28.7°C 82% 1.0 mph WSW1.6 kmh WSW 3.0 mph4.8 kmh 30.06 in1017.9 mb 0.00 in0.0 mm 0.00 in0.0 mm 0.00 in0.0 mm
10:30 AM 89.6°F32.0°C 83.0°F28.3°C 81% 0.8 mph WSW1.3 kmh WSW 6.0 mph9.7 kmh 30.05 in1017.6 mb 0.00 in0.0 mm 0.00 in0.0 mm 0.00 in0.0 mm
10:20 AM 89.9°F32.2°C 83.7°F28.7°C 82% 0.9 mph WSW1.4 kmh WSW 4.0 mph6.4 kmh 30.06 in1017.9 mb 0.00 in0.0 mm 0.00 in0.0 mm 0.00 in0.0 mm
10:10 AM 88.3°F31.3°C 82.8°F28.2°C 84% 1.0 mph WSW1.6 kmh WSW 4.0 mph6.4 kmh 30.06 in1017.9 mb 0.00 in0.0 mm 0.00 in0.0 mm 0.00 in0.0 mm
10:00 AM 87.7°F30.9°C 82.6°F28.1°C 85% 1.0 mph SW1.6 kmh SW 5.0 mph8.0 kmh 30.06 in1017.9 mb 0.00 in0.0 mm 0.00 in0.0 mm 0.00 in0.0 mm
09:50 AM 87.1°F30.6°C 82.4°F28.0°C 86% 1.0 mph WSW1.6 kmh WSW 4.0 mph6.4 kmh 30.05 in1017.6 mb 0.00 in0.0 mm 0.00 in0.0 mm 0.00 in0.0 mm
09:40 AM 86.8°F30.4°C 82.5°F28.1°C 87% 1.0 mph WSW1.6 kmh WSW 3.0 mph4.8 kmh 30.06 in1017.9 mb 0.00 in0.0 mm 0.00 in0.0 mm 0.00 in0.0 mm
09:30 AM 86.2°F30.1°C 82.2°F27.9°C 88% 1.0 mph WSW1.6 kmh WSW 4.0 mph6.4 kmh 30.05 in1017.6 mb 0.00 in0.0 mm 0.00 in0.0 mm 0.00 in0.0 mm
09:20 AM 85.5°F29.7°C 81.9°F27.7°C 89% 1.0 mph WSW1.6 kmh WSW 4.0 mph6.4 kmh 30.05 in1017.6 mb 0.00 in0.0 mm 0.00 in0.0 mm 0.00 in0.0 mm
09:10 AM 85.2°F29.6°C 81.9°F27.7°C 90% 1.0 mph WSW1.6 kmh WSW 3.0 mph4.8 kmh 30.05 in1017.6 mb 0.00 in0.0 mm 0.00 in0.0 mm 0.00 in0.0 mm
09:00 AM 84.5°F29.2°C 81.6°F27.6°C 91% 1.0 mph SW1.6 kmh SW 3.0 mph4.8 kmh 30.05 in1017.6 mb 0.00 in0.0 mm 0.00 in0.0 mm 0.00 in0.0 mm
08:50 AM 83.4°F28.6°C 80.8°F27.1°C 92% 0.6 mph WSW1.0 kmh WSW 3.0 mph4.8 kmh 30.05 in1017.6 mb 0.00 in0.0 mm 0.00 in0.0 mm 0.00 in0.0 mm
08:40 AM 82.3°F27.9°C 80.7°F27.1°C 95% 1.0 mph SW1.6 kmh SW 4.0 mph6.4 kmh 30.04 in1017.3 mb 0.00 in0.0 mm 0.00 in0.0 mm 0.00 in0.0 mm
08:30 AM 81.8°F27.7°C 79.9°F26.6°C 94% 1.0 mph WSW1.6 kmh WSW 5.0 mph8.0 kmh 30.04 in1017.3 mb 0.00 in0.0 mm 0.00 in0.0 mm 0.00 in0.0 mm
08:20 AM 81.1°F27.3°C 79.5°F26.4°C 95% 0.2 mph WSW0.3 kmh WSW 3.0 mph4.8 kmh 30.04 in1017.3 mb 0.00 in0.0 mm 0.00 in0.0 mm 0.00 in0.0 mm
08:10 AM 80.5°F26.9°C 79.9°F26.6°C 98% 0.9 mph SW1.4 kmh SW 3.0 mph4.8 kmh 30.03 in1016.9 mb 0.00 in0.0 mm 0.00 in0.0 mm 0.00 in0.0 mm
08:00 AM 79.5°F26.4°C 78.9°F26.1°C 98% 0.2 mph WSW0.3 kmh WSW 3.0 mph4.8 kmh 30.03 in1016.9 mb 0.00 in0.0 mm 0.00 in0.0 mm 0.00 in0.0 mm
07:50 AM 79.0°F26.1°C 79.0°F26.1°C 100% Calm Calm 2.0 mph3.2 kmh 30.02 in1016.6 mb 0.00 in0.0 mm 0.00 in0.0 mm 0.00 in0.0 mm
07:40 AM 78.3°F25.7°C 78.3°F25.7°C 100% Calm Calm 1.0 mph1.6 kmh 30.02 in1016.6 mb 0.00 in0.0 mm 0.00 in0.0 mm 0.00 in0.0 mm
07:30 AM 77.5°F25.3°C 77.5°F25.3°C 100% Calm Calm 1.0 mph1.6 kmh 30.00 in1015.9 mb 0.00 in0.0 mm 0.00 in0.0 mm 0.00 in0.0 mm
07:20 AM 77.0°F25.0°C 77.0°F25.0°C 100% Calm Calm 1.0 mph1.6 kmh 30.01 in1016.3 mb 0.00 in0.0 mm 0.00 in0.0 mm 0.00 in0.0 mm
07:10 AM 76.5°F24.7°C 76.5°F24.7°C 100% Calm Calm 1.0 mph1.6 kmh 30.01 in1016.3 mb 0.00 in0.0 mm 0.00 in0.0 mm 0.00 in0.0 mm
07:00 AM 75.3°F24.1°C 75.3°F24.1°C 100% Calm Calm 1.0 mph1.6 kmh 30.01 in1016.3 mb 0.00 in0.0 mm 0.00 in0.0 mm 0.00 in0.0 mm
06:50 AM 74.0°F23.3°C 74.0°F23.3°C 100% 0.3 mph SE0.5 kmh SE 2.0 mph3.2 kmh 30.01 in1016.3 mb 0.00 in0.0 mm 0.00 in0.0 mm 0.00 in0.0 mm
06:40 AM 73.3°F22.9°C 73.3°F22.9°C 100% Calm Calm 2.0 mph3.2 kmh 30.01 in1016.3 mb 0.00 in0.0 mm 0.00 in0.0 mm 0.00 in0.0 mm
06:30 AM 72.3°F22.4°C 72.3°F22.4°C 100% Calm Calm -- 30.01 in1016.3 mb 0.00 in0.0 mm 0.00 in0.0 mm 0.00 in0.0 mm
06:20 AM 72.2°F22.3°C 72.2°F22.3°C 100% Calm Calm -- 30.02 in1016.6 mb 0.00 in0.0 mm 0.00 in0.0 mm 0.00 in0.0 mm
06:10 AM 72.4°F22.4°C 72.4°F22.4°C 100% Calm Calm 1.0 mph1.6 kmh 30.01 in1016.3 mb 0.00 in0.0 mm 0.00 in0.0 mm 0.00 in0.0 mm
06:00 AM 72.4°F22.4°C 72.4°F22.4°C 100% Calm Calm 1.0 mph1.6 kmh 30.02 in1016.6 mb 0.00 in0.0 mm 0.00 in0.0 mm 0.00 in0.0 mm
05:50 AM 72.3°F22.4°C 72.3°F22.4°C 100% Calm Calm 1.0 mph1.6 kmh 30.02 in1016.6 mb 0.00 in0.0 mm 0.00 in0.0 mm 0.00 in0.0 mm
05:40 AM 72.4°F22.4°C 72.4°F22.4°C 100% Calm Calm 1.0 mph1.6 kmh 30.02 in1016.6 mb 0.00 in0.0 mm 0.00 in0.0 mm 0.00 in0.0 mm
05:30 AM 72.5°F22.5°C 72.5°F22.5°C 100% Calm Calm 2.0 mph3.2 kmh 30.02 in1016.6 mb 0.00 in0.0 mm 0.00 in0.0 mm 0.00 in0.0 mm
05:20 AM 72.5°F22.5°C 72.5°F22.5°C 100% Calm Calm 1.0 mph1.6 kmh 30.02 in1016.6 mb 0.00 in0.0 mm 0.00 in0.0 mm 0.00 in0.0 mm
05:10 AM 72.7°F22.6°C 72.7°F22.6°C 100% Calm Calm -- 30.01 in1016.3 mb 0.00 in0.0 mm 0.00 in0.0 mm 0.00 in0.0 mm
05:00 AM 72.9°F22.7°C 72.9°F22.7°C 100% Calm Calm -- 30.01 in1016.3 mb 0.00 in0.0 mm 0.00 in0.0 mm 0.00 in0.0 mm
04:50 AM 73.3°F22.9°C 73.3°F22.9°C 100% Calm Calm 1.0 mph1.6 kmh 30.02 in1016.6 mb 0.00 in0.0 mm 0.00 in0.0 mm 0.00 in0.0 mm
04:40 AM 73.5°F23.1°C 73.5°F23.1°C 100% Calm Calm 1.0 mph1.6 kmh 30.02 in1016.6 mb 0.00 in0.0 mm 0.00 in0.0 mm 0.00 in0.0 mm
04:30 AM 73.7°F23.2°C 73.7°F23.2°C 100% Calm Calm 2.0 mph3.2 kmh 30.02 in1016.6 mb 0.00 in0.0 mm 0.00 in0.0 mm 0.00 in0.0 mm
04:20 AM 73.9°F23.3°C 73.9°F23.3°C 100% Calm Calm -- 30.01 in1016.3 mb 0.00 in0.0 mm 0.00 in0.0 mm 0.00 in0.0 mm
04:10 AM 74.1°F23.4°C 74.1°F23.4°C 100% Calm Calm -- 30.01 in1016.3 mb 0.00 in0.0 mm 0.00 in0.0 mm 0.00 in0.0 mm
04:00 AM 74.2°F23.4°C 74.2°F23.4°C 100% Calm Calm -- 30.01 in1016.3 mb 0.00 in0.0 mm 0.00 in0.0 mm 0.00 in0.0 mm
03:50 AM 74.1°F23.4°C 74.1°F23.4°C 100% Calm Calm -- 30.01 in1016.3 mb 0.00 in0.0 mm 0.00 in0.0 mm 0.00 in0.0 mm
03:40 AM 74.0°F23.3°C 74.0°F23.3°C 100% Calm Calm -- 30.01 in1016.3 mb 0.00 in0.0 mm 0.00 in0.0 mm 0.00 in0.0 mm
03:30 AM 73.6°F23.1°C 73.6°F23.1°C 100% Calm Calm -- 30.01 in1016.3 mb 0.00 in0.0 mm 0.00 in0.0 mm 0.00 in0.0 mm
03:20 AM 73.3°F22.9°C 73.3°F22.9°C 100% Calm Calm -- 30.01 in1016.3 mb 0.00 in0.0 mm 0.00 in0.0 mm 0.00 in0.0 mm
03:10 AM 73.2°F22.9°C 73.2°F22.9°C 100% Calm Calm -- 30.00 in1015.9 mb 0.00 in0.0 mm 0.00 in0.0 mm 0.00 in0.0 mm
03:00 AM 73.3°F22.9°C 73.3°F22.9°C 100% Calm Calm -- 30.00 in1015.9 mb 0.00 in0.0 mm 0.00 in0.0 mm 0.00 in0.0 mm
02:50 AM 72.9°F22.7°C 72.9°F22.7°C 100% Calm Calm -- 30.00 in1015.9 mb 0.00 in0.0 mm 0.00 in0.0 mm 0.00 in0.0 mm
02:40 AM 73.1°F22.8°C 73.1°F22.8°C 100% Calm Calm -- 30.00 in1015.9 mb 0.00 in0.0 mm 0.00 in0.0 mm 0.00 in0.0 mm
02:30 AM 73.4°F23.0°C 73.4°F23.0°C 100% Calm Calm -- 29.99 in1015.6 mb 0.00 in0.0 mm 0.00 in0.0 mm 0.00 in0.0 mm
02:20 AM 73.7°F23.2°C 73.7°F23.2°C 100% Calm Calm -- 29.99 in1015.6 mb 0.00 in0.0 mm 0.00 in0.0 mm 0.00 in0.0 mm
02:10 AM 73.5°F23.1°C 73.5°F23.1°C 100% Calm Calm -- 30.00 in1015.9 mb 0.00 in0.0 mm 0.00 in0.0 mm 0.00 in0.0 mm
02:00 AM 73.5°F23.1°C 73.5°F23.1°C 100% Calm Calm -- 29.99 in1015.6 mb 0.00 in0.0 mm 0.00 in0.0 mm 0.00 in0.0 mm
01:50 AM 73.7°F23.2°C 73.7°F23.2°C 100% Calm Calm -- 29.99 in1015.6 mb 0.00 in0.0 mm 0.00 in0.0 mm 0.00 in0.0 mm
01:40 AM 74.0°F23.3°C 74.0°F23.3°C 100% Calm Calm -- 29.99 in1015.6 mb 0.00 in0.0 mm 0.00 in0.0 mm 0.00 in0.0 mm
01:30 AM 74.4°F23.6°C 74.4°F23.6°C 100% Calm Calm -- 30.00 in1015.9 mb 0.00 in0.0 mm 0.00 in0.0 mm 0.00 in0.0 mm
01:20 AM 74.8°F23.8°C 74.8°F23.8°C 100% Calm Calm -- 30.00 in1015.9 mb 0.00 in0.0 mm 0.00 in0.0 mm 0.00 in0.0 mm
01:10 AM 75.2°F24.0°C 75.2°F24.0°C 100% Calm Calm -- 30.00 in1015.9 mb 0.00 in0.0 mm 0.00 in0.0 mm 0.00 in0.0 mm
01:00 AM 75.5°F24.2°C 75.5°F24.2°C 100% Calm Calm -- 30.00 in1015.9 mb 0.00 in0.0 mm 0.00 in0.0 mm 0.00 in0.0 mm
12:50 AM 75.5°F24.2°C 75.5°F24.2°C 100% Calm Calm -- 30.00 in1015.9 mb 0.00 in0.0 mm 0.00 in0.0 mm 0.00 in0.0 mm
12:40 AM 75.2°F24.0°C 75.2°F24.0°C 100% Calm Calm -- 30.00 in1015.9 mb 0.00 in0.0 mm 0.00 in0.0 mm 0.00 in0.0 mm
12:30 AM 75.6°F24.2°C 75.6°F24.2°C 100% Calm Calm -- 30.00 in1015.9 mb 0.00 in0.0 mm 0.00 in0.0 mm 0.00 in0.0 mm
12:20 AM 76.1°F24.5°C 76.1°F24.5°C 100% Calm Calm -- 30.01 in1016.3 mb 0.00 in0.0 mm 0.00 in0.0 mm 0.00 in0.0 mm
12:10 AM 76.2°F24.6°C 76.2°F24.6°C 100% Calm Calm -- 30.00 in1015.9 mb 0.00 in0.0 mm 0.00 in0.0 mm 0.00 in0.0 mm